Terminal Aerodrome Forecast
Issued by NWS St Louis, MO

Home | Current Version | Previous Version | Graphics & Text | Print | Product List | Glossary On
Versions: 1 2 3 4 5 6 7 8 9 10 11 12 13 14 15 16 17 18 19 20 21 22 23 24 25 26 27 28 29 30 31
855
FTUS43 KLSX 170541
TAFSTL
TAF
KSTL 170541Z 1706/1812 26015G25KT P6SM VCSH BKN015
      TEMPO 1706/1707 5SM -SHRA BR
     FM170700 26015G25KT P6SM BKN015
     FM170900 26011KT 5SM BR OVC008
     FM171800 27011KT 6SM BR OVC012
     FM180000 28007KT P6SM BKN015
     FM180600 VRB04KT 5SM BR SCT020=

USA.gov is the U.S. government's official web portal to all federal, state and local government web resources and services.